sensor_id;sensor_type;location;lat;lon;timestamp;pressure;altitude;pressure_sealevel;temperature;humidity
57000;BME280;42891;50.006;21.964;2024-03-06T00:00:47;51189.03;;;-146.02;79.45
57000;BME280;42891;50.006;21.964;2024-03-06T00:04:47;51140.94;;;-146.02;79.90
57000;BME280;42891;50.006;21.964;2024-03-06T00:08:48;51173.00;;;-146.02;79.33
57000;BME280;42891;50.006;21.964;2024-03-06T00:12:48;51165.00;;;-146.02;80.18
57000;BME280;42891;50.006;21.964;2024-03-06T00:16:49;51156.97;;;-146.02;79.59
57000;BME280;42891;50.006;21.964;2024-03-06T00:20:55;51179.03;;;-146.02;80.04
57000;BME280;42891;50.006;21.964;2024-03-06T00:24:56;51150.97;;;-146.02;80.11
57000;BME280;42891;50.006;21.964;2024-03-06T00:28:56;51173.00;;;-146.02;79.44
57000;BME280;42891;50.006;21.964;2024-03-06T00:32:57;51144.97;;;-146.02;79.27
57000;BME280;42891;50.006;21.964;2024-03-06T00:36:57;51126.94;;;-146.02;79.01
57000;BME280;42891;50.006;21.964;2024-03-06T00:40:58;51158.97;;;-146.02;79.01
57000;BME280;42891;50.006;21.964;2024-03-06T00:44:58;51148.97;;;-146.02;78.63
57000;BME280;42891;50.006;21.964;2024-03-06T00:48:58;51193.06;;;-146.02;78.85
57000;BME280;42891;50.006;21.964;2024-03-06T00:52:59;51132.94;;;-146.02;78.89
57000;BME280;42891;50.006;21.964;2024-03-06T00:56:59;51161.00;;;-146.02;78.92
57000;BME280;42891;50.006;21.964;2024-03-06T01:00:59;51169.00;;;-146.02;79.31
57000;BME280;42891;50.006;21.964;2024-03-06T01:05:01;51140.94;;;-146.02;79.50
57000;BME280;42891;50.006;21.964;2024-03-06T01:09:03;51169.00;;;-146.02;80.00
57000;BME280;42891;50.006;21.964;2024-03-06T01:13:04;51158.97;;;-146.02;79.79
57000;BME280;42891;50.006;21.964;2024-03-06T01:17:04;51193.06;;;-146.02;79.42
57000;BME280;42891;50.006;21.964;2024-03-06T01:21:05;51177.03;;;-146.02;79.76
57000;BME280;42891;50.006;21.964;2024-03-06T01:25:06;51116.91;;;-146.02;80.05
57000;BME280;42891;50.006;21.964;2024-03-06T01:29:07;51158.97;;;-146.02;79.44
57000;BME280;42891;50.006;21.964;2024-03-06T01:33:07;51148.97;;;-146.02;80.56
57000;BME280;42891;50.006;21.964;2024-03-06T01:37:08;51158.97;;;-146.02;80.90
57000;BME280;42891;50.006;21.964;2024-03-06T01:41:08;51181.03;;;-146.02;80.93
57000;BME280;42891;50.006;21.964;2024-03-06T01:45:09;51156.97;;;-146.02;81.71
57000;BME280;42891;50.006;21.964;2024-03-06T01:49:11;51156.97;;;-146.02;81.74
57000;BME280;42891;50.006;21.964;2024-03-06T01:53:14;51171.00;;;-146.02;81.64
57000;BME280;42891;50.006;21.964;2024-03-06T01:57:17;51150.97;;;-146.02;81.95
57000;BME280;42891;50.006;21.964;2024-03-06T02:01:18;51169.00;;;-146.02;82.01
57000;BME280;42891;50.006;21.964;2024-03-06T02:05:19;51148.97;;;-146.02;81.71
57000;BME280;42891;50.006;21.964;2024-03-06T02:09:20;51187.03;;;-146.02;81.53
57000;BME280;42891;50.006;21.964;2024-03-06T02:13:21;51193.06;;;-146.02;81.53
57000;BME280;42891;50.006;21.964;2024-03-06T02:17:22;51140.94;;;-146.02;81.74
57000;BME280;42891;50.006;21.964;2024-03-06T02:21:25;51163.00;;;-146.02;81.98
57000;BME280;42891;50.006;21.964;2024-03-06T02:25:26;51169.00;;;-146.02;81.98
57000;BME280;42891;50.006;21.964;2024-03-06T02:29:26;51158.97;;;-146.02;81.71
57000;BME280;42891;50.006;21.964;2024-03-06T02:33:26;51175.00;;;-146.02;81.31
57000;BME280;42891;50.006;21.964;2024-03-06T02:37:27;51191.03;;;-146.02;81.55
57000;BME280;42891;50.006;21.964;2024-03-06T02:41:28;51140.94;;;-146.02;81.23
57000;BME280;42891;50.006;21.964;2024-03-06T02:45:28;51154.97;;;-146.02;81.09
57000;BME280;42891;50.006;21.964;2024-03-06T02:49:28;51158.97;;;-146.02;81.55
57000;BME280;42891;50.006;21.964;2024-03-06T02:53:29;51177.03;;;-146.02;81.24
57000;BME280;42891;50.006;21.964;2024-03-06T02:57:29;51122.91;;;-146.02;81.57
57000;BME280;42891;50.006;21.964;2024-03-06T03:01:29;51171.00;;;-146.02;82.71
57000;BME280;42891;50.006;21.964;2024-03-06T03:05:30;51193.06;;;-146.02;82.05
57000;BME280;42891;50.006;21.964;2024-03-06T03:09:30;51183.03;;;-146.02;82.50
57000;BME280;42891;50.006;21.964;2024-03-06T03:13:30;51158.97;;;-146.02;82.18
57000;BME280;42891;50.006;21.964;2024-03-06T03:17:31;51169.00;;;-146.02;81.72
57000;BME280;42891;50.006;21.964;2024-03-06T03:21:31;51140.94;;;-146.02;81.68
57000;BME280;42891;50.006;21.964;2024-03-06T03:25:32;51148.97;;;-146.02;81.54
57000;BME280;42891;50.006;21.964;2024-03-06T03:29:33;51179.03;;;-146.02;81.74
57000;BME280;42891;50.006;21.964;2024-03-06T03:33:35;51140.94;;;-146.02;82.40
57000;BME280;42891;50.006;21.964;2024-03-06T03:37:38;51217.09;;;-146.02;82.35
57000;BME280;42891;50.006;21.964;2024-03-06T03:41:43;51181.03;;;-146.02;82.31
57000;BME280;42891;50.006;21.964;2024-03-06T03:45:43;51158.97;;;-146.02;82.37
57000;BME280;42891;50.006;21.964;2024-03-06T03:49:43;51158.97;;;-146.02;82.13
57000;BME280;42891;50.006;21.964;2024-03-06T03:53:44;51152.97;;;-146.02;82.20
57000;BME280;42891;50.006;21.964;2024-03-06T03:57:44;51185.03;;;-146.02;81.94
57000;BME280;42891;50.006;21.964;2024-03-06T04:01:45;51189.03;;;-146.02;81.77
57000;BME280;42891;50.006;21.964;2024-03-06T04:05:50;51177.03;;;-146.02;81.90
57000;BME280;42891;50.006;21.964;2024-03-06T04:09:50;51144.97;;;-146.02;82.01
57000;BME280;42891;50.006;21.964;2024-03-06T04:13:51;51197.06;;;-146.02;82.25
57000;BME280;42891;50.006;21.964;2024-03-06T04:17:51;51171.00;;;-146.02;82.16
57000;BME280;42891;50.006;21.964;2024-03-06T04:21:52;51161.00;;;-146.02;82.38
57000;BME280;42891;50.006;21.964;2024-03-06T04:25:52;51167.00;;;-146.02;82.09
57000;BME280;42891;50.006;21.964;2024-03-06T04:29:53;51185.03;;;-146.02;82.20
57000;BME280;42891;50.006;21.964;2024-03-06T04:33:53;51177.03;;;-146.02;82.24
57000;BME280;42891;50.006;21.964;2024-03-06T04:37:53;51148.97;;;-146.02;82.07
57000;BME280;42891;50.006;21.964;2024-03-06T04:41:54;51171.00;;;-146.02;81.69
57000;BME280;42891;50.006;21.964;2024-03-06T04:45:54;51179.03;;;-146.02;81.77
57000;BME280;42891;50.006;21.964;2024-03-06T04:49:55;51189.03;;;-146.02;82.13
57000;BME280;42891;50.006;21.964;2024-03-06T04:53:55;51167.00;;;-146.02;81.83
57000;BME280;42891;50.006;21.964;2024-03-06T04:57:55;51165.00;;;-146.02;82.39
57000;BME280;42891;50.006;21.964;2024-03-06T05:01:55;51120.91;;;-146.02;82.66
57000;BME280;42891;50.006;21.964;2024-03-06T05:05:56;51161.00;;;-146.02;82.85
57000;BME280;42891;50.006;21.964;2024-03-06T05:09:57;51183.03;;;-146.02;82.56
57000;BME280;42891;50.006;21.964;2024-03-06T05:13:59;51158.97;;;-146.02;83.55
57000;BME280;42891;50.006;21.964;2024-03-06T05:18:00;51150.97;;;-146.02;83.55
57000;BME280;42891;50.006;21.964;2024-03-06T05:22:00;51152.97;;;-146.02;83.24
57000;BME280;42891;50.006;21.964;2024-03-06T05:26:01;51201.06;;;-146.02;83.74
57000;BME280;42891;50.006;21.964;2024-03-06T05:30:01;51144.97;;;-146.02;83.83
57000;BME280;42891;50.006;21.964;2024-03-06T05:34:04;51187.03;;;-146.02;83.41
57000;BME280;42891;50.006;21.964;2024-03-06T05:38:05;51185.03;;;-146.02;83.36
57000;BME280;42891;50.006;21.964;2024-03-06T05:42:07;51161.00;;;-146.02;83.24
57000;BME280;42891;50.006;21.964;2024-03-06T05:46:07;51156.97;;;-146.02;83.97
57000;BME280;42891;50.006;21.964;2024-03-06T05:50:08;51193.06;;;-146.02;84.38
57000;BME280;42891;50.006;21.964;2024-03-06T05:54:10;51183.03;;;-146.02;85.79
57000;BME280;42891;50.006;21.964;2024-03-06T05:58:11;51150.97;;;-146.02;85.61
57000;BME280;42891;50.006;21.964;2024-03-06T06:02:11;51144.97;;;-146.02;85.91
57000;BME280;42891;50.006;21.964;2024-03-06T06:06:11;51156.97;;;-146.02;85.69
57000;BME280;42891;50.006;21.964;2024-03-06T06:10:12;51148.97;;;-146.02;88.03
57000;BME280;42891;50.006;21.964;2024-03-06T06:14:12;51165.00;;;-146.02;88.54
57000;BME280;42891;50.006;21.964;2024-03-06T06:18:13;51209.09;;;-146.02;88.65
57000;BME280;42891;50.006;21.964;2024-03-06T06:22:13;51185.03;;;-146.02;88.18
57000;BME280;42891;50.006;21.964;2024-03-06T06:26:14;51195.06;;;-146.02;88.88
57000;BME280;42891;50.006;21.964;2024-03-06T06:30:15;51136.94;;;-146.02;88.58
57000;BME280;42891;50.006;21.964;2024-03-06T06:34:16;51177.03;;;-146.02;88.80
57000;BME280;42891;50.006;21.964;2024-03-06T06:38:16;51201.06;;;-146.02;88.53
57000;BME280;42891;50.006;21.964;2024-03-06T06:42:17;51169.00;;;-146.02;88.22
57000;BME280;42891;50.006;21.964;2024-03-06T06:46:17;51189.03;;;-146.02;88.67
57000;BME280;42891;50.006;21.964;2024-03-06T06:50:18;51197.06;;;-146.02;88.78
57000;BME280;42891;50.006;21.964;2024-03-06T06:54:21;51187.03;;;-146.02;88.55
57000;BME280;42891;50.006;21.964;2024-03-06T06:58:22;51185.03;;;-146.02;88.71
57000;BME280;42891;50.006;21.964;2024-03-06T07:02:22;51181.03;;;-146.02;89.44
57000;BME280;42891;50.006;21.964;2024-03-06T07:06:22;51201.06;;;-146.02;88.69
57000;BME280;42891;50.006;21.964;2024-03-06T07:10:22;51179.03;;;-146.02;88.41
57000;BME280;42891;50.006;21.964;2024-03-06T07:14:23;51185.03;;;-146.02;88.26
57000;BME280;42891;50.006;21.964;2024-03-06T07:18:24;51191.03;;;-146.02;88.39
57000;BME280;42891;50.006;21.964;2024-03-06T07:22:24;51207.06;;;-146.02;88.07
57000;BME280;42891;50.006;21.964;2024-03-06T07:26:25;51207.06;;;-146.02;87.31
57000;BME280;42891;50.006;21.964;2024-03-06T07:30:26;51189.03;;;-146.02;87.88
57000;BME280;42891;50.006;21.964;2024-03-06T07:34:26;51191.03;;;-146.02;87.84
57000;BME280;42891;50.006;21.964;2024-03-06T07:38:27;51148.97;;;-146.02;87.90
57000;BME280;42891;50.006;21.964;2024-03-06T07:42:28;51175.00;;;-146.02;86.84
57000;BME280;42891;50.006;21.964;2024-03-06T07:46:29;51165.00;;;-146.02;88.13
57000;BME280;42891;50.006;21.964;2024-03-06T07:50:30;51179.03;;;-146.02;88.14
57000;BME280;42891;50.006;21.964;2024-03-06T07:54:30;51211.09;;;-146.02;87.74
57000;BME280;42891;50.006;21.964;2024-03-06T07:58:30;51213.09;;;-146.02;88.42
57000;BME280;42891;50.006;21.964;2024-03-06T08:02:31;51189.03;;;-146.02;88.34
57000;BME280;42891;50.006;21.964;2024-03-06T08:06:31;51165.00;;;-146.02;87.90
57000;BME280;42891;50.006;21.964;2024-03-06T08:10:32;51183.03;;;-146.02;88.18
57000;BME280;42891;50.006;21.964;2024-03-06T08:14:33;51197.06;;;-146.02;88.72
57000;BME280;42891;50.006;21.964;2024-03-06T08:18:34;51197.06;;;-146.02;89.54
57000;BME280;42891;50.006;21.964;2024-03-06T08:22:38;51191.03;;;-146.02;89.97
57000;BME280;42891;50.006;21.964;2024-03-06T08:26:38;51201.06;;;-146.02;89.69
57000;BME280;42891;50.006;21.964;2024-03-06T08:30:39;51183.03;;;-146.02;89.66
57000;BME280;42891;50.006;21.964;2024-03-06T08:34:39;51193.06;;;-146.02;88.85
57000;BME280;42891;50.006;21.964;2024-03-06T08:38:39;51187.03;;;-146.02;88.73
57000;BME280;42891;50.006;21.964;2024-03-06T08:42:41;51191.03;;;-146.02;88.16
57000;BME280;42891;50.006;21.964;2024-03-06T08:46:42;51203.06;;;-146.02;88.70
57000;BME280;42891;50.006;21.964;2024-03-06T08:50:42;51221.09;;;-146.02;88.53
57000;BME280;42891;50.006;21.964;2024-03-06T08:54:42;51175.00;;;-146.02;88.86
57000;BME280;42891;50.006;21.964;2024-03-06T08:58:43;51201.06;;;-146.02;88.85
57000;BME280;42891;50.006;21.964;2024-03-06T09:02:43;51211.09;;;-146.02;88.58
57000;BME280;42891;50.006;21.964;2024-03-06T09:06:43;51193.06;;;-146.02;89.73
57000;BME280;42891;50.006;21.964;2024-03-06T09:10:44;51195.06;;;-146.02;89.62
57000;BME280;42891;50.006;21.964;2024-03-06T09:14:44;51197.06;;;-146.02;88.94
57000;BME280;42891;50.006;21.964;2024-03-06T09:18:45;51161.00;;;-146.02;88.42
57000;BME280;42891;50.006;21.964;2024-03-06T09:22:45;51183.03;;;-146.02;88.44
57000;BME280;42891;50.006;21.964;2024-03-06T09:26:45;51179.03;;;-146.02;87.75
57000;BME280;42891;50.006;21.964;2024-03-06T09:30:46;51161.00;;;-146.02;88.23
57000;BME280;42891;50.006;21.964;2024-03-06T09:34:46;51211.09;;;-146.02;87.94
57000;BME280;42891;50.006;21.964;2024-03-06T09:38:46;51169.00;;;-146.02;88.38
57000;BME280;42891;50.006;21.964;2024-03-06T09:42:47;51199.06;;;-146.02;88.64
57000;BME280;42891;50.006;21.964;2024-03-06T09:46:49;51211.09;;;-146.02;88.22
57000;BME280;42891;50.006;21.964;2024-03-06T09:50:51;51148.97;;;-146.02;88.00
57000;BME280;42891;50.006;21.964;2024-03-06T09:54:54;51169.00;;;-146.02;87.42
57000;BME280;42891;50.006;21.964;2024-03-06T09:58:55;51167.00;;;-146.02;87.52
57000;BME280;42891;50.006;21.964;2024-03-06T10:02:59;51213.09;;;-146.02;87.79
57000;BME280;42891;50.006;21.964;2024-03-06T10:07:00;51209.09;;;-146.02;88.93
57000;BME280;42891;50.006;21.964;2024-03-06T10:11:02;51187.03;;;-146.02;88.13
57000;BME280;42891;50.006;21.964;2024-03-06T10:15:03;51189.03;;;-146.02;88.04
57000;BME280;42891;50.006;21.964;2024-03-06T10:19:17;51193.06;;;-146.02;87.57
57000;BME280;42891;50.006;21.964;2024-03-06T10:23:18;51165.00;;;-146.02;88.25
57000;BME280;42891;50.006;21.964;2024-03-06T10:27:18;51163.00;;;-146.02;88.64
57000;BME280;42891;50.006;21.964;2024-03-06T10:31:26;51189.03;;;-146.02;88.74
57000;BME280;42891;50.006;21.964;2024-03-06T10:35:28;51201.06;;;-146.02;89.20
57000;BME280;42891;50.006;21.964;2024-03-06T10:39:30;51187.03;;;-146.02;89.07
57000;BME280;42891;50.006;21.964;2024-03-06T10:43:31;51181.03;;;-146.02;88.62
57000;BME280;42891;50.006;21.964;2024-03-06T10:47:33;51221.09;;;-146.02;88.34
57000;BME280;42891;50.006;21.964;2024-03-06T10:51:33;51221.09;;;-146.02;87.77
57000;BME280;42891;50.006;21.964;2024-03-06T10:55:35;51187.03;;;-146.02;87.69
57000;BME280;42891;50.006;21.964;2024-03-06T10:59:36;51191.03;;;-146.02;87.17
57000;BME280;42891;50.006;21.964;2024-03-06T11:03:37;51171.00;;;-146.02;86.65
57000;BME280;42891;50.006;21.964;2024-03-06T11:07:37;51165.00;;;-146.02;87.15
57000;BME280;42891;50.006;21.964;2024-03-06T11:11:48;51225.13;;;-146.02;87.63
57000;BME280;42891;50.006;21.964;2024-03-06T11:15:50;51161.00;;;-146.02;87.15
57000;BME280;42891;50.006;21.964;2024-03-06T11:24:20;51245.16;;;-146.02;88.04
57000;BME280;42891;50.006;21.964;2024-03-06T11:28:31;51171.00;;;-146.02;87.67
57000;BME280;42891;50.006;21.964;2024-03-06T11:32:32;51197.06;;;-146.02;87.64
57000;BME280;42891;50.006;21.964;2024-03-06T11:36:34;51179.03;;;-146.02;87.47
57000;BME280;42891;50.006;21.964;2024-03-06T11:40:42;51233.13;;;-146.02;86.63
57000;BME280;42891;50.006;21.964;2024-03-06T11:44:53;51189.03;;;-146.02;86.71
57000;BME280;42891;50.006;21.964;2024-03-06T11:48:55;51215.09;;;-146.02;87.33
57000;BME280;42891;50.006;21.964;2024-03-06T11:52:56;51227.13;;;-146.02;87.29
57000;BME280;42891;50.006;21.964;2024-03-06T11:56:58;51173.00;;;-146.02;87.76
57000;BME280;42891;50.006;21.964;2024-03-06T12:00:59;51173.00;;;-146.02;87.32
57000;BME280;42891;50.006;21.964;2024-03-06T12:05:04;51235.13;;;-146.02;88.33
57000;BME280;42891;50.006;21.964;2024-03-06T12:09:05;51217.09;;;-146.02;87.85
57000;BME280;42891;50.006;21.964;2024-03-06T12:13:05;51203.06;;;-146.02;87.63
57000;BME280;42891;50.006;21.964;2024-03-06T12:17:06;51189.03;;;-146.02;87.29
57000;BME280;42891;50.006;21.964;2024-03-06T12:21:10;51169.00;;;-146.02;87.67
57000;BME280;42891;50.006;21.964;2024-03-06T12:25:18;51203.06;;;-146.02;87.70
57000;BME280;42891;50.006;21.964;2024-03-06T12:29:19;51177.03;;;-146.02;86.48
57000;BME280;42891;50.006;21.964;2024-03-06T12:33:20;51152.97;;;-146.02;86.85
57000;BME280;42891;50.006;21.964;2024-03-06T12:37:28;51173.00;;;-146.02;86.86
57000;BME280;42891;50.006;21.964;2024-03-06T12:41:30;51197.06;;;-146.02;85.89
57000;BME280;42891;50.006;21.964;2024-03-06T12:45:30;51148.97;;;-146.02;85.60
57000;BME280;42891;50.006;21.964;2024-03-06T12:49:31;51197.06;;;-146.02;85.73
57000;BME280;42891;50.006;21.964;2024-03-06T12:53:32;51205.06;;;-146.02;85.76
57000;BME280;42891;50.006;21.964;2024-03-06T12:57:36;51163.00;;;-146.02;84.47
57000;BME280;42891;50.006;21.964;2024-03-06T13:01:36;51158.97;;;-146.02;83.10
57000;BME280;42891;50.006;21.964;2024-03-06T13:05:36;51177.03;;;-146.02;83.44
57000;BME280;42891;50.006;21.964;2024-03-06T13:09:37;51203.06;;;-146.02;83.09
57000;BME280;42891;50.006;21.964;2024-03-06T13:13:37;51199.06;;;-146.02;83.01
57000;BME280;42891;50.006;21.964;2024-03-06T13:17:38;51199.06;;;-146.02;83.87
57000;BME280;42891;50.006;21.964;2024-03-06T13:21:39;51201.06;;;-146.02;83.86
57000;BME280;42891;50.006;21.964;2024-03-06T13:25:40;51171.00;;;-146.02;82.82
57000;BME280;42891;50.006;21.964;2024-03-06T13:29:40;51158.97;;;-146.02;82.64
57000;BME280;42891;50.006;21.964;2024-03-06T13:33:41;51191.03;;;-146.02;84.42
57000;BME280;42891;50.006;21.964;2024-03-06T13:37:42;51191.03;;;-146.02;83.89
57000;BME280;42891;50.006;21.964;2024-03-06T13:41:42;51140.94;;;-146.02;84.63
57000;BME280;42891;50.006;21.964;2024-03-06T13:45:49;51185.03;;;-146.02;85.17
57000;BME280;42891;50.006;21.964;2024-03-06T13:49:50;51148.97;;;-146.02;84.80
57000;BME280;42891;50.006;21.964;2024-03-06T13:53:50;51185.03;;;-146.02;85.79
57000;BME280;42891;50.006;21.964;2024-03-06T13:57:51;51215.09;;;-146.02;84.14
57000;BME280;42891;50.006;21.964;2024-03-06T14:01:51;51146.97;;;-146.02;85.14
57000;BME280;42891;50.006;21.964;2024-03-06T14:05:52;51183.03;;;-146.02;86.05
57000;BME280;42891;50.006;21.964;2024-03-06T14:09:52;51221.09;;;-146.02;87.13
57000;BME280;42891;50.006;21.964;2024-03-06T14:13:52;51195.06;;;-146.02;88.30
57000;BME280;42891;50.006;21.964;2024-03-06T14:17:53;51177.03;;;-146.02;89.48
57000;BME280;42891;50.006;21.964;2024-03-06T14:21:54;51221.09;;;-146.02;89.59
57000;BME280;42891;50.006;21.964;2024-03-06T14:25:54;51171.00;;;-146.02;89.50
57000;BME280;42891;50.006;21.964;2024-03-06T14:29:55;51237.13;;;-146.02;90.27
57000;BME280;42891;50.006;21.964;2024-03-06T14:33:55;51211.09;;;-146.02;90.73
57000;BME280;42891;50.006;21.964;2024-03-06T14:37:56;51140.94;;;-146.02;90.65
57000;BME280;42891;50.006;21.964;2024-03-06T14:41:56;51191.03;;;-146.02;90.73
57000;BME280;42891;50.006;21.964;2024-03-06T14:45:56;51185.03;;;-146.02;91.10
57000;BME280;42891;50.006;21.964;2024-03-06T14:49:56;51193.06;;;-146.02;90.93
57000;BME280;42891;50.006;21.964;2024-03-06T14:53:57;51173.00;;;-146.02;91.52
57000;BME280;42891;50.006;21.964;2024-03-06T14:57:57;51173.00;;;-146.02;91.45
57000;BME280;42891;50.006;21.964;2024-03-06T15:01:57;51197.06;;;-146.02;91.54
57000;BME280;42891;50.006;21.964;2024-03-06T15:05:58;51199.06;;;-146.02;91.42
57000;BME280;42891;50.006;21.964;2024-03-06T15:09:58;51185.03;;;-146.02;91.66
57000;BME280;42891;50.006;21.964;2024-03-06T15:13:59;51193.06;;;-146.02;91.90
57000;BME280;42891;50.006;21.964;2024-03-06T15:17:59;51227.13;;;-146.02;92.04
57000;BME280;42891;50.006;21.964;2024-03-06T15:21:59;51193.06;;;-146.02;91.80
57000;BME280;42891;50.006;21.964;2024-03-06T15:26:03;51203.06;;;-146.02;91.19
57000;BME280;42891;50.006;21.964;2024-03-06T15:30:05;51187.03;;;-146.02;91.24
57000;BME280;42891;50.006;21.964;2024-03-06T15:34:06;51191.03;;;-146.02;91.09
57000;BME280;42891;50.006;21.964;2024-03-06T15:38:06;51241.16;;;-146.02;90.86
57000;BME280;42891;50.006;21.964;2024-03-06T15:42:07;51183.03;;;-146.02;91.14
57000;BME280;42891;50.006;21.964;2024-03-06T15:46:08;51217.09;;;-146.02;90.40
57000;BME280;42891;50.006;21.964;2024-03-06T15:50:09;51177.03;;;-146.02;90.58
57000;BME280;42891;50.006;21.964;2024-03-06T15:54:10;51189.03;;;-146.02;90.26
57000;BME280;42891;50.006;21.964;2024-03-06T15:58:11;51185.03;;;-146.02;90.49
57000;BME280;42891;50.006;21.964;2024-03-06T16:02:11;51181.03;;;-146.02;89.79
57000;BME280;42891;50.006;21.964;2024-03-06T16:06:12;51179.03;;;-146.02;89.33
57000;BME280;42891;50.006;21.964;2024-03-06T16:10:12;51209.09;;;-146.02;89.00
57000;BME280;42891;50.006;21.964;2024-03-06T16:14:12;51215.09;;;-146.02;89.39
57000;BME280;42891;50.006;21.964;2024-03-06T16:18:13;51181.03;;;-146.02;89.52
57000;BME280;42891;50.006;21.964;2024-03-06T16:22:13;51201.06;;;-146.02;89.11
57000;BME280;42891;50.006;21.964;2024-03-06T16:26:13;51195.06;;;-146.02;89.17
57000;BME280;42891;50.006;21.964;2024-03-06T16:30:14;51227.13;;;-146.02;88.67
57000;BME280;42891;50.006;21.964;2024-03-06T16:34:15;51189.03;;;-146.02;88.68
57000;BME280;42891;50.006;21.964;2024-03-06T16:38:16;51221.09;;;-146.02;88.64
57000;BME280;42891;50.006;21.964;2024-03-06T16:42:19;51201.06;;;-146.02;88.66
57000;BME280;42891;50.006;21.964;2024-03-06T16:46:20;51173.00;;;-146.02;89.04
57000;BME280;42891;50.006;21.964;2024-03-06T16:50:21;51191.03;;;-146.02;88.76
57000;BME280;42891;50.006;21.964;2024-03-06T16:54:21;51213.09;;;-146.02;89.17
57000;BME280;42891;50.006;21.964;2024-03-06T16:58:21;51187.03;;;-146.02;88.67
57000;BME280;42891;50.006;21.964;2024-03-06T17:02:21;51205.06;;;-146.02;89.20
57000;BME280;42891;50.006;21.964;2024-03-06T17:06:22;51205.06;;;-146.02;88.71
57000;BME280;42891;50.006;21.964;2024-03-06T17:10:22;51235.13;;;-146.02;89.08
57000;BME280;42891;50.006;21.964;2024-03-06T17:14:23;51209.09;;;-146.02;88.85
57000;BME280;42891;50.006;21.964;2024-03-06T17:18:23;51213.09;;;-146.02;88.87
57000;BME280;42891;50.006;21.964;2024-03-06T17:22:24;51181.03;;;-146.02;87.94
57000;BME280;42891;50.006;21.964;2024-03-06T17:26:24;51193.06;;;-146.02;88.29
57000;BME280;42891;50.006;21.964;2024-03-06T17:30:24;51187.03;;;-146.02;88.45
57000;BME280;42891;50.006;21.964;2024-03-06T17:34:28;51181.03;;;-146.02;88.23
57000;BME280;42891;50.006;21.964;2024-03-06T17:38:28;51201.06;;;-146.02;88.84
57000;BME280;42891;50.006;21.964;2024-03-06T17:42:29;51195.06;;;-146.02;88.16
57000;BME280;42891;50.006;21.964;2024-03-06T17:46:30;51227.13;;;-146.02;88.74
57000;BME280;42891;50.006;21.964;2024-03-06T17:50:33;51199.06;;;-146.02;88.35
57000;BME280;42891;50.006;21.964;2024-03-06T17:54:34;51201.06;;;-146.02;88.63
57000;BME280;42891;50.006;21.964;2024-03-06T17:58:35;51205.06;;;-146.02;88.07
57000;BME280;42891;50.006;21.964;2024-03-06T18:02:36;51217.09;;;-146.02;87.57
57000;BME280;42891;50.006;21.964;2024-03-06T18:06:36;51199.06;;;-146.02;88.48
57000;BME280;42891;50.006;21.964;2024-03-06T18:10:36;51243.16;;;-146.02;88.07
57000;BME280;42891;50.006;21.964;2024-03-06T18:14:36;51207.06;;;-146.02;88.48
57000;BME280;42891;50.006;21.964;2024-03-06T18:18:37;51183.03;;;-146.02;88.34
57000;BME280;42891;50.006;21.964;2024-03-06T18:22:37;51199.06;;;-146.02;88.37
57000;BME280;42891;50.006;21.964;2024-03-06T18:26:38;51207.06;;;-146.02;87.96
57000;BME280;42891;50.006;21.964;2024-03-06T18:30:38;51191.03;;;-146.02;88.69
57000;BME280;42891;50.006;21.964;2024-03-06T18:34:38;51217.09;;;-146.02;88.42
57000;BME280;42891;50.006;21.964;2024-03-06T18:38:39;51195.06;;;-146.02;88.58
57000;BME280;42891;50.006;21.964;2024-03-06T18:42:39;51213.09;;;-146.02;89.23
57000;BME280;42891;50.006;21.964;2024-03-06T18:46:40;51209.09;;;-146.02;88.85
57000;BME280;42891;50.006;21.964;2024-03-06T18:50:41;51211.09;;;-146.02;88.30
57000;BME280;42891;50.006;21.964;2024-03-06T18:54:41;51207.06;;;-146.02;89.01
57000;BME280;42891;50.006;21.964;2024-03-06T18:58:41;51185.03;;;-146.02;88.96
57000;BME280;42891;50.006;21.964;2024-03-06T19:02:42;51201.06;;;-146.02;89.43
57000;BME280;42891;50.006;21.964;2024-03-06T19:06:44;51213.09;;;-146.02;88.94
57000;BME280;42891;50.006;21.964;2024-03-06T19:10:45;51197.06;;;-146.02;88.36
57000;BME280;42891;50.006;21.964;2024-03-06T19:14:45;51223.09;;;-146.02;88.33
57000;BME280;42891;50.006;21.964;2024-03-06T19:18:45;51165.00;;;-146.02;89.00
57000;BME280;42891;50.006;21.964;2024-03-06T19:22:46;51183.03;;;-146.02;88.66
57000;BME280;42891;50.006;21.964;2024-03-06T19:26:47;51239.13;;;-146.02;88.53
57000;BME280;42891;50.006;21.964;2024-03-06T19:30:48;51195.06;;;-146.02;89.01
57000;BME280;42891;50.006;21.964;2024-03-06T19:34:48;51217.09;;;-146.02;88.91
57000;BME280;42891;50.006;21.964;2024-03-06T19:38:48;51187.03;;;-146.02;89.02
57000;BME280;42891;50.006;21.964;2024-03-06T19:42:49;51203.06;;;-146.02;88.58
57000;BME280;42891;50.006;21.964;2024-03-06T19:46:49;51181.03;;;-146.02;88.80
57000;BME280;42891;50.006;21.964;2024-03-06T19:50:53;51187.03;;;-146.02;89.12
57000;BME280;42891;50.006;21.964;2024-03-06T19:54:54;51231.13;;;-146.02;89.72
57000;BME280;42891;50.006;21.964;2024-03-06T19:58:54;51237.13;;;-146.02;89.98
57000;BME280;42891;50.006;21.964;2024-03-06T20:02:55;51249.16;;;-146.02;89.90
57000;BME280;42891;50.006;21.964;2024-03-06T20:06:55;51223.09;;;-146.02;89.60
57000;BME280;42891;50.006;21.964;2024-03-06T20:10:55;51233.13;;;-146.02;89.47
57000;BME280;42891;50.006;21.964;2024-03-06T20:14:56;51181.03;;;-146.02;89.59
57000;BME280;42891;50.006;21.964;2024-03-06T20:18:56;51205.06;;;-146.02;89.96
57000;BME280;42891;50.006;21.964;2024-03-06T20:22:56;51219.09;;;-146.02;89.79
57000;BME280;42891;50.006;21.964;2024-03-06T20:27:00;51229.13;;;-146.02;89.84
57000;BME280;42891;50.006;21.964;2024-03-06T20:31:03;51199.06;;;-146.02;89.74